INFORMACIÓN METAR y TAF
METAR FOR EIDW
ADDS - METARS form results

(0710 UTC 20 January 2020)
Data provider http://aviationweather.gov/metar/data/
 
METAR text: EIDW 200700Z 23006KT CAVOK 03/01 Q1046 NOSIG
Conditions at: EIDW (DUBLIN AIRPORT , IE) observed 0700 UTC 20 January 2020
Temperature: 3.0°C (37°F)
Dewpoint: 1.0°C (34°F) [RH = 87%]
Pressure (altimeter): 30.89 inches Hg (1046.0 mb)
Winds: from the SW (230 degrees) at 7 MPH (6 knots; 3.1 m/s)
Visibility: 6 or more miles (10+ km)
Ceiling: ceiling and visibility are OK
Clouds: unknown
Weather: no significant weather observed at this time

METAR text: EIDW 200630Z 23007KT CAVOK 03/01 Q1046 NOSIG
Conditions at: EIDW (DUBLIN AIRPORT , IE) observed 0630 UTC 20 January 2020
Temperature: 3.0°C (37°F)
Dewpoint: 1.0°C (34°F) [RH = 87%]
Pressure (altimeter): 30.89 inches Hg (1046.0 mb)
Winds: from the SW (230 degrees) at 8 MPH (7 knots; 3.6 m/s)
Visibility: 6 or more miles (10+ km)
Ceiling: ceiling and visibility are OK
Clouds: unknown
Weather: no significant weather observed at this time

Forecast for: EIDW (DUBLIN AIRPORT , IE)
Text: TAF EIDW 200500Z 2006/2106 23008KT 9999 FEW030
Forecast period: 0600 UTC 20 January 2020 to 0600 UTC 21 January 2020
Forecast type: FROM: standard forecast or significant change
Winds: from the SW (230 degrees) at 9 MPH (8 knots; 4.1 m/s)
Visibility: 6 or more miles 10+ km)
Ceiling: at least 12,000 feet AGL
Clouds: few clouds at 3000 feet AGL
Weather: no significant weather forecast for this period

MAPA DE AEROPUERTO

INFORMACIÓN DE PISTA
Pista 10 Longitud 8652 ft Ancho 148 ft
Elevación 242 ft Umbral desplazado 0 ft Rumbo de pista 95
Pista 28 Longitud 8652 ft Ancho 148 ft
Elevación 202 ft Umbral desplazado 0 ft Rumbo de pista 275
Pista 11 Longitud 4393 ft Ancho 200 ft
Elevación 217 ft Umbral desplazado 279 ft Rumbo de pista 105
Pista 29 Longitud 4393 ft Ancho 200 ft
Elevación 216 ft Umbral desplazado 0 ft Rumbo de pista 285
Pista 16 Longitud 6798 ft Ancho 200 ft
Elevación 217 ft Umbral desplazado 0 ft Rumbo de pista 157
Pista 34 Longitud 6798 ft Ancho 200 ft
Elevación 202 ft Umbral desplazado 0 ft Rumbo de pista 337

FRECUANCIAS DEL AEROPUERTO
Tipo APP Nombre APP Frecuencia 121.1 MHZ
Tipo ATIS Nombre ATIS Frecuencia 124.525 MHZ
Tipo CLD Nombre CLNC DEL Frecuencia 121.875 MHZ
Tipo GND Nombre GND Frecuencia 121.8 MHZ
Tipo INFO Nombre FIS Frecuencia 118.5 MHZ
Tipo TWR Nombre TWR Frecuencia 118.6 MHZ

RADIO AYUDAS DEL AEROPUERTO
Tipo VOR-DME Nombre Dublin Frecuencia 111200 KHZ
Tipo VOR-DME Nombre Dublin Frecuencia 114900 KHZ
Tipo NDB Nombre Garristown Frecuencia 407 KHZ
Tipo NDB-DME Nombre Gormanston Frecuencia 334 KHZ
Tipo DME Nombre Dublin Frecuencia 108900 KHZ
Tipo NDB Nombre Killiney Frecuencia 378 KHZ
Tipo NDB Nombre Rush Frecuencia 326 KHZ